createdAt,value
2018-03-15T00:01:15.263Z,79.40
2018-03-15T00:03:43.592Z,79.40
2018-03-15T00:06:11.938Z,79.40
2018-03-15T00:08:40.259Z,79.20
2018-03-15T00:11:08.594Z,79.20
2018-03-15T00:13:36.909Z,79.10
2018-03-15T00:16:05.251Z,79.20
2018-03-15T00:18:33.564Z,79.30
2018-03-15T00:21:01.918Z,79.70
2018-03-15T00:23:30.235Z,80.00
2018-03-15T00:25:58.567Z,80.50
2018-03-15T00:28:26.887Z,80.60
2018-03-15T00:30:55.227Z,80.50
2018-03-15T00:33:23.543Z,80.50
2018-03-15T00:35:51.884Z,80.50
2018-03-15T00:38:20.194Z,80.50
2018-03-15T00:40:48.531Z,80.50
2018-03-15T00:43:16.857Z,80.00
2018-03-15T00:45:45.193Z,79.60
2018-03-15T00:48:13.509Z,79.60
2018-03-15T00:50:41.841Z,79.60
2018-03-15T00:53:10.164Z,79.70
2018-03-15T00:55:38.504Z,79.50
2018-03-15T00:58:06.823Z,79.40
2018-03-15T01:00:35.154Z,78.90
2018-03-15T01:03:03.488Z,78.50
2018-03-15T01:05:31.833Z,78.10
2018-03-15T01:08:00.151Z,77.90
2018-03-15T01:10:28.494Z,77.80
2018-03-15T01:12:56.815Z,77.50
2018-03-15T01:15:25.158Z,77.30
2018-03-15T01:17:53.478Z,77.20
2018-03-15T01:20:21.821Z,77.00
2018-03-15T01:22:50.143Z,77.00
2018-03-15T01:25:18.471Z,76.90
2018-03-15T01:27:46.799Z,77.20
2018-03-15T01:30:15.143Z,77.40
2018-03-15T01:32:43.462Z,77.60
2018-03-15T01:35:11.795Z,77.80
2018-03-15T01:37:40.111Z,77.90
2018-03-15T01:40:08.469Z,77.80
2018-03-15T01:42:36.792Z,77.70
2018-03-15T01:45:05.135Z,77.80
2018-03-15T01:47:33.454Z,77.70
2018-03-15T01:50:01.771Z,78.00
2018-03-15T01:52:30.108Z,78.00
2018-03-15T01:54:58.431Z,77.80
2018-03-15T01:57:26.766Z,77.70
2018-03-15T01:59:55.076Z,77.50
2018-03-15T02:02:23.413Z,77.30
2018-03-15T02:04:51.732Z,77.10
2018-03-15T02:07:20.074Z,77.00
2018-03-15T02:09:48.386Z,76.90
2018-03-15T02:12:16.721Z,76.90
2018-03-15T02:14:45.041Z,76.90
2018-03-15T02:17:13.381Z,77.00
2018-03-15T02:19:41.692Z,77.10
2018-03-15T02:22:10.031Z,77.10
2018-03-15T02:24:38.352Z,77.10
2018-03-15T02:27:06.684Z,77.10
2018-03-15T02:29:35.005Z,77.10
2018-03-15T02:32:03.342Z,77.10
2018-03-15T02:34:31.664Z,77.10
2018-03-15T02:37:00.008Z,77.10
2018-03-15T02:39:28.338Z,77.00
2018-03-15T02:41:56.676Z,76.90
2018-03-15T02:44:24.991Z,77.00
2018-03-15T02:46:53.338Z,77.10
2018-03-15T02:49:21.667Z,77.10
2018-03-15T02:51:50.031Z,76.90
2018-03-15T02:54:18.348Z,77.00
2018-03-15T02:56:46.690Z,77.00
2018-03-15T02:59:15.007Z,76.80
2018-03-15T03:01:43.343Z,77.60
2018-03-15T03:04:11.654Z,76.90
2018-03-15T03:06:39.995Z,77.00
2018-03-15T03:09:08.332Z,77.10
2018-03-15T03:11:36.673Z,76.90
2018-03-15T03:14:04.987Z,76.90
2018-03-15T03:16:33.333Z,76.80
2018-03-15T03:19:01.655Z,76.60
2018-03-15T03:21:30.000Z,76.70
2018-03-15T03:23:58.330Z,76.60
2018-03-15T03:26:26.679Z,76.70
2018-03-15T03:28:55.000Z,76.60
2018-03-15T03:31:23.356Z,76.50
2018-03-15T03:33:51.700Z,76.30
2018-03-15T03:36:20.027Z,76.20
2018-03-15T03:38:48.368Z,76.10
2018-03-15T03:41:16.682Z,76.10
2018-03-15T03:43:45.021Z,76.10
2018-03-15T03:46:13.338Z,76.10
2018-03-15T03:48:41.684Z,75.20
2018-03-15T03:51:09.995Z,75.80
2018-03-15T03:53:38.350Z,75.80
2018-03-15T03:56:06.667Z,75.80
2018-03-15T03:58:35.004Z,75.60
2018-03-15T04:01:03.327Z,75.50
2018-03-15T04:03:31.663Z,75.50
2018-03-15T04:05:59.978Z,75.60
2018-03-15T04:08:28.319Z,75.70
2018-03-15T04:10:56.630Z,75.60
2018-03-15T04:13:24.971Z,75.80
2018-03-15T04:15:53.296Z,75.70
2018-03-15T04:18:21.648Z,75.70
2018-03-15T04:20:49.964Z,75.70
2018-03-15T04:23:18.357Z,76.60
2018-03-15T04:25:46.674Z,75.70
2018-03-15T04:28:15.018Z,76.70
2018-03-15T04:30:43.338Z,75.90
2018-03-15T04:33:11.686Z,76.10
2018-03-15T04:35:40.009Z,76.10
2018-03-15T04:38:08.362Z,76.10
2018-03-15T04:40:36.688Z,76.00
2018-03-15T04:43:05.025Z,75.80
2018-03-15T04:45:33.334Z,75.80
2018-03-15T04:48:01.691Z,75.70
2018-03-15T04:50:30.016Z,76.00
2018-03-15T04:52:58.360Z,75.50
2018-03-15T04:55:26.683Z,75.40
2018-03-15T04:57:55.026Z,76.20
2018-03-15T05:00:23.343Z,75.40
2018-03-15T05:02:51.685Z,75.70
2018-03-15T05:05:19.998Z,75.50
2018-03-15T05:07:48.336Z,75.80
2018-03-15T05:10:16.652Z,76.10
2018-03-15T05:12:44.963Z,76.40
2018-03-15T05:15:13.311Z,76.60
2018-03-15T05:17:41.626Z,76.90
2018-03-15T05:20:09.967Z,77.20
2018-03-15T05:22:38.300Z,77.30
2018-03-15T05:25:06.688Z,77.30
2018-03-15T05:27:35.015Z,77.50
2018-03-15T05:30:03.358Z,77.60
2018-03-15T05:32:31.679Z,77.50
2018-03-15T05:35:00.025Z,77.40
2018-03-15T05:37:28.336Z,77.20
2018-03-15T05:39:56.667Z,77.20
2018-03-15T05:42:24.987Z,77.40
2018-03-15T05:44:53.370Z,77.30
2018-03-15T05:47:21.667Z,77.60
2018-03-15T05:49:50.003Z,77.40
2018-03-15T05:52:18.318Z,77.70
2018-03-15T05:54:46.663Z,77.90
2018-03-15T05:57:14.971Z,77.80
2018-03-15T05:59:43.319Z,77.70
2018-03-15T06:02:11.633Z,77.50
2018-03-15T06:04:39.966Z,77.50
2018-03-15T06:07:08.322Z,77.50
2018-03-15T06:09:36.661Z,77.50
2018-03-15T06:12:04.989Z,77.40
2018-03-15T06:14:33.324Z,77.50
2018-03-15T06:17:01.648Z,77.50
2018-03-15T06:19:29.987Z,77.60
2018-03-15T06:21:58.296Z,77.60
2018-03-15T06:24:26.642Z,77.30
2018-03-15T06:26:54.972Z,77.30
2018-03-15T06:29:23.311Z,77.40
2018-03-15T06:31:51.631Z,77.10
2018-03-15T06:34:19.971Z,76.90
2018-03-15T06:36:48.424Z,76.50
2018-03-15T06:39:16.764Z,76.30
2018-03-15T06:41:45.092Z,76.10
2018-03-15T06:44:13.439Z,75.80
2018-03-15T06:46:41.764Z,75.40
2018-03-15T06:49:10.102Z,75.10
2018-03-15T06:51:38.431Z,74.90
2018-03-15T06:54:06.756Z,74.70
2018-03-15T06:56:35.098Z,74.40
2018-03-15T06:59:03.441Z,74.30
2018-03-15T07:01:31.787Z,74.20
2018-03-15T07:04:00.104Z,74.20
2018-03-15T07:06:28.442Z,73.90
2018-03-15T07:08:56.799Z,73.90
2018-03-15T07:11:25.139Z,73.50
2018-03-15T07:13:53.483Z,73.40
2018-03-15T07:16:21.057Z,73.30
2018-03-15T07:18:49.384Z,73.20
2018-03-15T07:21:17.839Z,72.80
2018-03-15T07:23:46.159Z,72.50
2018-03-15T07:26:14.504Z,72.60
2018-03-15T07:28:42.827Z,72.10
2018-03-15T07:31:11.212Z,71.10
2018-03-15T07:33:39.550Z,71.10
2018-03-15T07:36:08.007Z,70.80
2018-03-15T07:38:36.329Z,70.70
2018-03-15T07:41:04.680Z,69.90
2018-03-15T07:43:32.992Z,69.50
2018-03-15T07:46:01.332Z,69.20
2018-03-15T07:48:29.648Z,68.80
2018-03-15T07:50:58.128Z,68.70
2018-03-15T07:53:26.451Z,67.80
2018-03-15T07:55:54.810Z,68.10
2018-03-15T07:58:23.128Z,68.20
2018-03-15T08:00:51.464Z,67.30
2018-03-15T08:03:19.787Z,66.80
2018-03-15T08:05:48.122Z,66.90
2018-03-15T08:08:16.434Z,66.90
2018-03-15T08:10:44.768Z,65.80
2018-03-15T08:13:13.079Z,65.80
2018-03-15T08:15:41.420Z,65.20
2018-03-15T08:18:09.748Z,65.00
2018-03-15T08:20:38.128Z,64.50
2018-03-15T08:23:06.432Z,64.30
2018-03-15T08:25:34.773Z,64.20
2018-03-15T08:28:03.106Z,63.70
2018-03-15T08:30:31.448Z,63.20
2018-03-15T08:32:59.772Z,62.60
2018-03-15T08:35:28.138Z,62.40
2018-03-15T08:37:56.473Z,61.60
2018-03-15T08:40:24.802Z,61.40
2018-03-15T08:42:53.140Z,61.20
2018-03-15T08:45:21.451Z,61.40
2018-03-15T08:47:49.800Z,60.80
2018-03-15T08:50:18.118Z,61.90
2018-03-15T08:52:46.467Z,60.60
2018-03-15T08:55:14.790Z,61.00
2018-03-15T08:57:43.135Z,59.70
2018-03-15T09:00:11.474Z,59.50
2018-03-15T09:02:39.827Z,59.30
2018-03-15T09:05:08.163Z,58.80
2018-03-15T09:07:36.521Z,58.30
2018-03-15T09:10:04.868Z,58.60
2018-03-15T09:12:33.211Z,58.10
2018-03-15T09:15:01.549Z,57.90
2018-03-15T09:17:29.907Z,57.20
2018-03-15T09:19:58.231Z,57.10
2018-03-15T09:22:26.583Z,57.00
2018-03-15T09:24:54.903Z,57.10
2018-03-15T09:27:23.242Z,56.10
2018-03-15T09:29:51.565Z,55.60
2018-03-15T09:32:19.917Z,55.40
2018-03-15T09:34:48.268Z,55.10
2018-03-15T09:37:16.638Z,55.10
2018-03-15T09:39:45.004Z,55.10
2018-03-15T09:42:13.392Z,54.20
2018-03-15T09:44:41.734Z,53.80
2018-03-15T09:47:10.106Z,52.70
2018-03-15T09:49:38.456Z,52.80
2018-03-15T09:52:06.823Z,52.90
2018-03-15T09:54:35.176Z,52.90
2018-03-15T09:57:03.566Z,53.00
2018-03-15T09:59:31.951Z,53.10
2018-03-15T10:02:00.314Z,52.80
2018-03-15T10:04:28.654Z,52.60
2018-03-15T10:06:57.012Z,52.00
2018-03-15T10:09:25.356Z,51.80
2018-03-15T10:11:53.716Z,51.80
2018-03-15T10:14:22.055Z,51.10
2018-03-15T10:16:50.423Z,50.20
2018-03-15T10:19:18.745Z,49.50
2018-03-15T10:21:47.123Z,48.20
2018-03-15T10:24:15.446Z,48.70
2018-03-15T10:26:43.802Z,48.80
2018-03-15T10:29:12.169Z,48.60
2018-03-15T10:31:40.522Z,48.60
2018-03-15T10:34:08.885Z,48.30
2018-03-15T10:36:37.224Z,48.40
2018-03-15T10:39:05.582Z,47.60
2018-03-15T10:41:33.923Z,47.70
2018-03-15T10:44:02.287Z,48.50
2018-03-15T10:46:30.640Z,48.80
2018-03-15T10:48:59.017Z,49.00
2018-03-15T10:51:27.345Z,49.50
2018-03-15T10:53:55.723Z,49.90
2018-03-15T10:56:24.055Z,49.50
2018-03-15T10:58:52.415Z,50.20
2018-03-15T11:01:22.573Z,51.00
2018-03-15T11:03:50.943Z,50.30
2018-03-15T11:06:25.031Z,50.00
2018-03-15T11:08:58.275Z,50.50
2018-03-15T11:11:26.616Z,50.20
2018-03-15T11:13:55.234Z,50.10
2018-03-15T11:16:23.570Z,50.30
2018-03-15T11:18:51.936Z,50.50
2018-03-15T11:21:20.279Z,50.20
2018-03-15T11:23:48.714Z,49.90
2018-03-15T11:26:16.978Z,50.70
2018-03-15T11:28:45.341Z,50.90
2018-03-15T11:31:13.697Z,50.60
2018-03-15T11:33:42.071Z,50.90
2018-03-15T11:36:10.416Z,51.30
2018-03-15T11:38:38.785Z,51.10
2018-03-15T11:41:07.149Z,51.30
2018-03-15T11:43:35.511Z,51.30
2018-03-15T11:46:03.865Z,51.30
2018-03-15T11:48:32.209Z,51.60
2018-03-15T11:51:00.552Z,51.50
2018-03-15T11:53:28.908Z,51.60
2018-03-15T11:55:57.248Z,51.40
2018-03-15T11:58:25.625Z,51.30
2018-03-15T12:00:53.963Z,51.50
2018-03-15T12:03:22.335Z,51.60
2018-03-15T12:05:50.688Z,51.90
2018-03-15T12:08:19.029Z,52.00
2018-03-15T12:10:47.392Z,51.00
2018-03-15T12:13:15.730Z,50.90
2018-03-15T12:15:44.109Z,50.70
2018-03-15T12:18:12.449Z,50.90
2018-03-15T12:20:40.788Z,51.30
2018-03-15T12:23:09.120Z,52.50
2018-03-15T12:25:37.463Z,52.60
2018-03-15T12:28:05.776Z,52.70
2018-03-15T12:30:34.109Z,52.90
2018-03-15T12:33:02.471Z,52.70
2018-03-15T12:35:30.818Z,52.30
2018-03-15T12:37:59.154Z,51.30
2018-03-15T12:40:27.500Z,51.00
2018-03-15T12:42:55.823Z,50.90
2018-03-15T12:45:24.162Z,51.50
2018-03-15T12:47:52.491Z,51.00
2018-03-15T12:50:20.856Z,50.60
2018-03-15T12:52:49.182Z,50.80
2018-03-15T12:55:17.524Z,50.70
2018-03-15T12:57:45.847Z,50.80
2018-03-15T13:00:14.191Z,51.10
2018-03-15T13:02:42.504Z,51.30
2018-03-15T13:05:10.848Z,51.10
2018-03-15T13:07:39.171Z,51.80
2018-03-15T13:10:07.525Z,51.60
2018-03-15T13:12:35.936Z,51.70
2018-03-15T13:15:04.287Z,51.90
2018-03-15T13:17:32.611Z,51.40
2018-03-15T13:20:00.963Z,51.10
2018-03-15T13:22:29.285Z,51.30
2018-03-15T13:24:57.650Z,51.10
2018-03-15T13:27:25.971Z,51.00
2018-03-15T13:29:54.312Z,50.80
2018-03-15T13:32:22.633Z,50.70
2018-03-15T13:34:50.977Z,50.60
2018-03-15T13:37:19.313Z,50.70
2018-03-15T13:39:47.663Z,50.90
2018-03-15T13:42:15.996Z,50.40
2018-03-15T13:44:44.338Z,51.00
2018-03-15T13:47:12.677Z,50.30
2018-03-15T13:49:41.058Z,50.30
2018-03-15T13:52:09.382Z,50.50
2018-03-15T13:54:37.711Z,50.30
2018-03-15T13:57:06.057Z,50.70
2018-03-15T13:59:34.386Z,50.20
2018-03-15T14:02:02.781Z,50.20
2018-03-15T14:04:31.093Z,50.40
2018-03-15T14:06:59.441Z,50.50
2018-03-15T14:09:27.780Z,50.40
2018-03-15T14:11:56.146Z,50.40
2018-03-15T14:14:24.466Z,50.40
2018-03-15T14:16:52.823Z,50.10
2018-03-15T14:19:21.148Z,50.10
2018-03-15T14:21:49.494Z,50.00
2018-03-15T14:24:17.819Z,49.60
2018-03-15T14:26:46.177Z,49.70
2018-03-15T14:29:14.518Z,48.10
2018-03-15T14:31:42.874Z,48.10
2018-03-15T14:34:11.202Z,48.50
2018-03-15T14:36:39.546Z,48.40
2018-03-15T14:39:07.864Z,49.20
2018-03-15T14:41:36.219Z,49.10
2018-03-15T14:44:04.547Z,49.10
2018-03-15T14:46:32.947Z,49.60
2018-03-15T14:49:01.275Z,49.50
2018-03-15T14:51:29.626Z,49.50
2018-03-15T14:53:57.960Z,49.70
2018-03-15T14:56:26.298Z,50.00
2018-03-15T14:58:54.615Z,50.10
2018-03-15T15:01:22.963Z,49.80
2018-03-15T15:03:51.285Z,49.90
2018-03-15T15:06:19.693Z,50.20
2018-03-15T15:08:47.977Z,50.40
2018-03-15T15:11:16.316Z,50.70
2018-03-15T15:13:44.652Z,50.80
2018-03-15T15:16:13.050Z,50.90
2018-03-15T15:18:41.341Z,51.20
2018-03-15T15:21:09.676Z,51.50
2018-03-15T15:23:38.023Z,51.70
2018-03-15T15:26:06.388Z,52.00
2018-03-15T15:28:34.736Z,52.20
2018-03-15T15:31:03.083Z,52.20
2018-03-15T15:33:31.407Z,52.20
2018-03-15T15:35:59.731Z,52.30
2018-03-15T15:38:28.067Z,52.60
2018-03-15T15:40:56.400Z,52.70
2018-03-15T15:43:24.748Z,53.00
2018-03-15T15:45:53.072Z,53.00
2018-03-15T15:48:20.656Z,53.00
2018-03-15T15:50:48.984Z,53.60
2018-03-15T15:53:17.340Z,54.00
2018-03-15T15:55:45.672Z,54.60
2018-03-15T15:58:14.009Z,55.60
2018-03-15T16:00:42.327Z,56.60
2018-03-15T16:03:10.713Z,57.40
2018-03-15T16:05:39.043Z,57.60
2018-03-15T16:08:07.384Z,58.00
2018-03-15T16:10:35.704Z,58.60
2018-03-15T16:13:04.053Z,59.00
2018-03-15T16:15:32.420Z,59.60
2018-03-15T16:18:00.772Z,60.00
2018-03-15T16:20:29.118Z,60.80
2018-03-15T16:22:57.462Z,63.40
2018-03-15T16:25:25.794Z,64.30
2018-03-15T16:27:54.131Z,64.40
2018-03-15T16:30:22.455Z,66.30
2018-03-15T16:32:50.801Z,67.00
2018-03-15T16:35:19.120Z,67.90
2018-03-15T16:37:47.459Z,69.00
2018-03-15T16:40:15.783Z,70.30
2018-03-15T16:42:44.131Z,71.30
2018-03-15T16:45:12.452Z,72.50
2018-03-15T16:47:40.796Z,73.60
2018-03-15T16:50:09.131Z,74.40
2018-03-15T16:52:37.477Z,75.40
2018-03-15T16:55:05.806Z,76.50
2018-03-15T16:57:34.152Z,77.20
2018-03-15T17:00:02.542Z,77.70
2018-03-15T17:02:30.903Z,77.40
2018-03-15T17:04:59.211Z,77.90
2018-03-15T17:07:27.560Z,78.30
2018-03-15T17:09:55.887Z,78.80
2018-03-15T17:12:24.235Z,79.30
2018-03-15T17:14:52.554Z,79.70
2018-03-15T17:17:20.909Z,80.30
2018-03-15T17:19:49.264Z,80.60
2018-03-15T17:22:17.604Z,81.00
2018-03-15T17:24:45.991Z,81.30
2018-03-15T17:27:14.311Z,81.80
2018-03-15T17:29:42.656Z,82.10
2018-03-15T17:32:10.986Z,82.60
2018-03-15T17:34:39.341Z,82.90
2018-03-15T17:37:07.666Z,83.40
2018-03-15T17:39:36.042Z,83.80
2018-03-15T17:42:04.364Z,84.30
2018-03-15T17:44:32.714Z,84.80
2018-03-15T17:47:01.044Z,85.10
2018-03-15T17:49:29.402Z,85.40
2018-03-15T17:51:57.732Z,85.80
2018-03-15T17:54:26.088Z,86.30
2018-03-15T17:56:54.404Z,86.60
2018-03-15T17:59:22.811Z,86.90
2018-03-15T18:01:51.119Z,87.20
2018-03-15T18:04:19.465Z,87.30
2018-03-15T18:06:47.790Z,87.50
2018-03-15T18:09:16.148Z,87.80
2018-03-15T18:11:44.488Z,88.20
2018-03-15T18:14:12.928Z,88.40
2018-03-15T18:16:41.183Z,88.50
2018-03-15T18:19:09.531Z,88.70
2018-03-15T18:21:37.863Z,89.80
2018-03-15T18:24:06.214Z,89.10
2018-03-15T18:26:34.551Z,89.30
2018-03-15T18:29:02.934Z,89.50
2018-03-15T18:31:31.281Z,90.20
2018-03-15T18:33:59.635Z,89.80
2018-03-15T18:36:27.978Z,90.00
2018-03-15T18:38:56.401Z,90.00
2018-03-15T18:41:24.786Z,90.00
2018-03-15T18:43:53.135Z,90.10
2018-03-15T18:46:21.453Z,90.10
2018-03-15T18:48:49.817Z,90.20
2018-03-15T18:51:18.145Z,90.20
2018-03-15T18:53:46.526Z,90.30
2018-03-15T18:56:14.829Z,90.40
2018-03-15T18:58:43.173Z,90.40
2018-03-15T19:01:12.617Z,90.50
2018-03-15T19:03:39.862Z,90.50
2018-03-15T19:06:08.193Z,90.50
2018-03-15T19:08:36.549Z,91.00
2018-03-15T19:11:04.874Z,90.60
2018-03-15T19:13:33.232Z,90.70
2018-03-15T19:16:01.575Z,90.70
2018-03-15T19:18:29.965Z,90.80
2018-03-15T19:20:58.390Z,90.80
2018-03-15T19:23:26.723Z,90.80
2018-03-15T19:25:55.093Z,90.80
2018-03-15T19:28:23.411Z,90.90
2018-03-15T19:30:51.825Z,90.90
2018-03-15T19:33:20.111Z,90.90
2018-03-15T19:35:48.794Z,91.00
2018-03-15T19:38:17.150Z,91.10
2018-03-15T19:40:45.485Z,91.20
2018-03-15T19:43:13.808Z,91.30
2018-03-15T19:45:42.204Z,91.30
2018-03-15T19:48:10.536Z,91.40
2018-03-15T19:50:38.893Z,91.40
2018-03-15T19:53:07.210Z,91.40
2018-03-15T19:55:35.552Z,91.50
2018-03-15T19:58:03.879Z,91.90
2018-03-15T20:00:32.219Z,91.50
2018-03-15T20:03:00.543Z,91.50
2018-03-15T20:05:28.890Z,91.50
2018-03-15T20:07:57.207Z,91.50
2018-03-15T20:10:25.567Z,91.50
2018-03-15T20:12:53.900Z,91.50
2018-03-15T20:15:22.243Z,91.60
2018-03-15T20:17:50.566Z,91.50
2018-03-15T20:20:18.924Z,91.60
2018-03-15T20:22:52.920Z,91.60
2018-03-15T20:25:21.291Z,91.70
2018-03-15T20:27:55.226Z,91.60
2018-03-15T20:30:23.606Z,91.60
2018-03-15T20:32:57.665Z,91.60
2018-03-15T20:35:25.236Z,91.60
2018-03-15T20:37:53.563Z,91.70
2018-03-15T20:40:27.627Z,91.70
2018-03-15T20:42:55.971Z,91.70
2018-03-15T20:45:29.930Z,91.70
2018-03-15T20:48:03.955Z,91.70
2018-03-15T20:50:32.312Z,91.80
2018-03-15T20:53:00.635Z,91.80
2018-03-15T20:55:28.980Z,91.90
2018-03-15T20:57:57.337Z,91.90
2018-03-15T21:00:25.685Z,91.90
2018-03-15T21:02:54.005Z,91.90
2018-03-15T21:05:22.405Z,91.90
2018-03-15T21:07:50.711Z,92.00
2018-03-15T21:10:19.055Z,91.80
2018-03-15T21:12:47.379Z,92.00
2018-03-15T21:15:15.704Z,92.00
2018-03-15T21:17:44.101Z,91.90
2018-03-15T21:20:12.399Z,91.90
2018-03-15T21:22:40.744Z,91.90
2018-03-15T21:25:09.064Z,91.90
2018-03-15T21:27:37.411Z,91.90
2018-03-15T21:30:05.731Z,91.90
2018-03-15T21:32:34.083Z,91.90
2018-03-15T21:35:02.412Z,91.90
2018-03-15T21:37:30.748Z,91.90
2018-03-15T21:39:59.088Z,91.90
2018-03-15T21:42:27.427Z,92.00
2018-03-15T21:44:55.752Z,92.10
2018-03-15T21:47:24.102Z,92.10
2018-03-15T21:49:52.419Z,92.10
2018-03-15T21:52:20.761Z,92.10
2018-03-15T21:54:49.098Z,92.20
2018-03-15T21:57:17.446Z,92.20
2018-03-15T21:59:45.754Z,92.20
2018-03-15T22:02:14.106Z,92.20
2018-03-15T22:04:42.420Z,92.30
2018-03-15T22:07:10.763Z,92.40
2018-03-15T22:09:39.087Z,92.40
2018-03-15T22:12:07.447Z,92.40
2018-03-15T22:14:35.770Z,92.40
2018-03-15T22:17:04.115Z,92.40
2018-03-15T22:19:32.430Z,92.40
2018-03-15T22:22:00.772Z,92.40
2018-03-15T22:24:29.091Z,92.40
2018-03-15T22:26:57.439Z,92.50
2018-03-15T22:29:25.757Z,92.60
2018-03-15T22:31:54.104Z,92.70
2018-03-15T22:34:22.422Z,92.70
2018-03-15T22:36:50.766Z,92.80
2018-03-15T22:39:18.312Z,92.80
2018-03-15T22:41:46.653Z,92.80
2018-03-15T22:44:14.975Z,92.70
2018-03-15T22:46:43.323Z,92.70
2018-03-15T22:49:11.650Z,92.70
2018-03-15T22:51:39.996Z,92.70
2018-03-15T22:54:08.333Z,92.80
2018-03-15T22:56:36.693Z,92.70
2018-03-15T22:59:05.013Z,92.70
2018-03-15T23:01:33.332Z,92.70
2018-03-15T23:04:01.678Z,92.70
2018-03-15T23:06:29.998Z,92.70
2018-03-15T23:08:58.338Z,92.70
2018-03-15T23:11:26.676Z,92.70
2018-03-15T23:13:55.026Z,92.80
2018-03-15T23:16:23.348Z,92.90
2018-03-15T23:18:51.710Z,93.00
2018-03-15T23:21:20.031Z,92.90
2018-03-15T23:23:48.375Z,92.90
2018-03-15T23:26:16.707Z,93.00
2018-03-15T23:28:45.051Z,93.30
2018-03-15T23:31:13.382Z,93.30
2018-03-15T23:33:41.718Z,93.30
2018-03-15T23:36:10.039Z,93.30
2018-03-15T23:38:37.614Z,93.30
2018-03-15T23:41:05.945Z,93.10
2018-03-15T23:43:34.294Z,93.20
2018-03-15T23:46:02.626Z,93.20
2018-03-15T23:48:30.959Z,93.20
2018-03-15T23:50:59.277Z,93.20
2018-03-15T23:53:27.624Z,93.20
2018-03-15T23:55:55.943Z,93.30
2018-03-15T23:58:24.305Z,93.30
